sensor_id;sensor_type;location;lat;lon;timestamp;pressure;altitude;pressure_sealevel;temperature;humidity
11448;BME280;43755;49.736;8.734;2023-04-20T00:01:52;97954.53;;;1.91;100.00
11448;BME280;43755;49.736;8.734;2023-04-20T00:03:54;97956.34;;;1.86;100.00
11448;BME280;43755;49.736;8.734;2023-04-20T00:05:55;97954.66;;;1.77;100.00
11448;BME280;43755;49.736;8.734;2023-04-20T00:08:01;97953.06;;;1.62;100.00
11448;BME280;43755;49.736;8.734;2023-04-20T00:10:03;97946.25;;;1.45;100.00
11448;BME280;43755;49.736;8.734;2023-04-20T00:12:06;97949.84;;;1.29;100.00
11448;BME280;43755;49.736;8.734;2023-04-20T00:14:07;97937.69;;;1.24;100.00
11448;BME280;43755;49.736;8.734;2023-04-20T00:16:09;97935.09;;;1.26;100.00
11448;BME280;43755;49.736;8.734;2023-04-20T00:18:10;97933.34;;;1.25;100.00
11448;BME280;43755;49.736;8.734;2023-04-20T00:20:11;97928.97;;;1.30;100.00
11448;BME280;43755;49.736;8.734;2023-04-20T00:22:14;97922.00;;;1.35;100.00
11448;BME280;43755;49.736;8.734;2023-04-20T00:24:17;97923.72;;;1.38;100.00
11448;BME280;43755;49.736;8.734;2023-04-20T00:26:19;97916.75;;;1.38;100.00
11448;BME280;43755;49.736;8.734;2023-04-20T00:28:20;97918.59;;;1.26;100.00
11448;BME280;43755;49.736;8.734;2023-04-20T00:30:22;97916.91;;;1.21;100.00
11448;BME280;43755;49.736;8.734;2023-04-20T00:32:23;97915.19;;;1.16;100.00
11448;BME280;43755;49.736;8.734;2023-04-20T00:34:24;97912.59;;;1.17;100.00
11448;BME280;43755;49.736;8.734;2023-04-20T00:36:26;97903.84;;;1.23;100.00
11448;BME280;43755;49.736;8.734;2023-04-20T00:38:27;97893.31;;;1.37;100.00
11448;BME280;43755;49.736;8.734;2023-04-20T00:40:30;97900.25;;;1.39;100.00
11448;BME280;43755;49.736;8.734;2023-04-20T00:42:32;97893.25;;;1.44;100.00
11448;BME280;43755;49.736;8.734;2023-04-20T00:44:34;97903.69;;;1.43;100.00
11448;BME280;43755;49.736;8.734;2023-04-20T00:46:35;97899.34;;;1.45;100.00
11448;BME280;43755;49.736;8.734;2023-04-20T00:48:37;97890.78;;;1.29;100.00
11448;BME280;43755;49.736;8.734;2023-04-20T00:50:39;97887.28;;;1.32;100.00
11448;BME280;43755;49.736;8.734;2023-04-20T00:52:41;97882.09;;;1.29;100.00
11448;BME280;43755;49.736;8.734;2023-04-20T00:54:42;97876.91;;;1.24;100.00
11448;BME280;43755;49.736;8.734;2023-04-20T00:56:45;97875.19;;;1.21;100.00
11448;BME280;43755;49.736;8.734;2023-04-20T00:58:46;97875.28;;;1.06;100.00
11448;BME280;43755;49.736;8.734;2023-04-20T01:00:48;97883.22;;;0.90;100.00
11448;BME280;43755;49.736;8.734;2023-04-20T01:02:49;97873.78;;;0.73;100.00
11448;BME280;43755;49.736;8.734;2023-04-20T01:04:51;97882.47;;;0.71;100.00
11448;BME280;43755;49.736;8.734;2023-04-20T01:06:52;97875.59;;;0.62;100.00
11448;BME280;43755;49.736;8.734;2023-04-20T01:08:53;97868.63;;;0.69;100.00
11448;BME280;43755;49.736;8.734;2023-04-20T01:10:55;97864.22;;;0.78;100.00
11448;BME280;43755;49.736;8.734;2023-04-20T01:12:58;97859.00;;;0.81;100.00
11448;BME280;43755;49.736;8.734;2023-04-20T01:15:01;97855.53;;;0.78;100.00
11448;BME280;43755;49.736;8.734;2023-04-20T01:17:04;97854.69;;;0.76;100.00
11448;BME280;43755;49.736;8.734;2023-04-20T01:19:06;97854.66;;;0.80;100.00
11448;BME280;43755;49.736;8.734;2023-04-20T01:21:07;97851.19;;;0.78;100.00
11448;BME280;43755;49.736;8.734;2023-04-20T01:23:10;97857.28;;;0.77;100.00
11448;BME280;43755;49.736;8.734;2023-04-20T01:25:11;97855.56;;;0.73;100.00
11448;BME280;43755;49.736;8.734;2023-04-20T01:27:13;97849.50;;;0.73;100.00
11448;BME280;43755;49.736;8.734;2023-04-20T01:29:16;97843.38;;;0.80;100.00
11448;BME280;43755;49.736;8.734;2023-04-20T01:31:17;97836.34;;;0.94;100.00
11448;BME280;43755;49.736;8.734;2023-04-20T01:33:18;97832.78;;;1.01;100.00
11448;BME280;43755;49.736;8.734;2023-04-20T01:35:20;97823.25;;;1.00;100.00
11448;BME280;43755;49.736;8.734;2023-04-20T01:37:21;97829.31;;;1.04;100.00
11448;BME280;43755;49.736;8.734;2023-04-20T01:39:24;97823.16;;;1.12;100.00
11448;BME280;43755;49.736;8.734;2023-04-20T01:41:26;97823.19;;;1.06;100.00
11448;BME280;43755;49.736;8.734;2023-04-20T01:43:27;97821.50;;;1.05;100.00
11448;BME280;43755;49.736;8.734;2023-04-20T01:45:28;97813.59;;;1.14;100.00
11448;BME280;43755;49.736;8.734;2023-04-20T01:47:30;97817.09;;;1.09;100.00
11448;BME280;43755;49.736;8.734;2023-04-20T01:49:32;97815.38;;;1.09;100.00
11448;BME280;43755;49.736;8.734;2023-04-20T01:51:34;97812.81;;;1.02;100.00
11448;BME280;43755;49.736;8.734;2023-04-20T01:53:35;97814.63;;;0.94;100.00
11448;BME280;43755;49.736;8.734;2023-04-20T01:55:38;97805.09;;;0.94;100.00
11448;BME280;43755;49.736;8.734;2023-04-20T01:57:40;97808.53;;;0.95;100.00
11448;BME280;43755;49.736;8.734;2023-04-20T01:59:43;97809.34;;;1.06;100.00
11448;BME280;43755;49.736;8.734;2023-04-20T02:01:45;97803.25;;;1.05;100.00
11448;BME280;43755;49.736;8.734;2023-04-20T02:03:47;97802.28;;;1.17;100.00
11448;BME280;43755;49.736;8.734;2023-04-20T02:05:48;97804.84;;;1.23;100.00
11448;BME280;43755;49.736;8.734;2023-04-20T02:07:50;97802.19;;;1.24;100.00
11448;BME280;43755;49.736;8.734;2023-04-20T02:09:51;97809.13;;;1.26;100.00
11448;BME280;43755;49.736;8.734;2023-04-20T02:11:54;97809.06;;;1.35;100.00
11448;BME280;43755;49.736;8.734;2023-04-20T02:13:56;97803.81;;;1.41;100.00
11448;BME280;43755;49.736;8.734;2023-04-20T02:15:57;97802.06;;;1.40;100.00
11448;BME280;43755;49.736;8.734;2023-04-20T02:17:58;97815.09;;;1.40;100.00
11448;BME280;43755;49.736;8.734;2023-04-20T02:20:00;97807.34;;;1.35;100.00
11448;BME280;43755;49.736;8.734;2023-04-20T02:22:01;97802.03;;;1.43;100.00
11448;BME280;43755;49.736;8.734;2023-04-20T02:24:03;97795.06;;;1.46;100.00
11448;BME280;43755;49.736;8.734;2023-04-20T02:26:06;97798.53;;;1.47;100.00
11448;BME280;43755;49.736;8.734;2023-04-20T02:28:08;97797.59;;;1.51;100.00
11448;BME280;43755;49.736;8.734;2023-04-20T02:30:10;97791.47;;;1.58;100.00
11448;BME280;43755;49.736;8.734;2023-04-20T02:32:12;97786.13;;;1.67;100.00
11448;BME280;43755;49.736;8.734;2023-04-20T02:34:13;97785.09;;;1.82;100.00
11448;BME280;43755;49.736;8.734;2023-04-20T02:36:14;97780.75;;;1.82;100.00
11448;BME280;43755;49.736;8.734;2023-04-20T02:38:16;97778.94;;;1.87;100.00
11448;BME280;43755;49.736;8.734;2023-04-20T02:40:17;97779.75;;;1.91;100.00
11448;BME280;43755;49.736;8.734;2023-04-20T02:42:19;97779.69;;;1.95;100.00
11448;BME280;43755;49.736;8.734;2023-04-20T02:44:21;97782.19;;;2.06;100.00
11448;BME280;43755;49.736;8.734;2023-04-20T02:46:23;97770.03;;;2.05;100.00
11448;BME280;43755;49.736;8.734;2023-04-20T02:48:24;97779.69;;;1.97;100.00
11448;BME280;43755;49.736;8.734;2023-04-20T02:50:26;97780.75;;;1.81;100.00
11448;BME280;43755;49.736;8.734;2023-04-20T02:52:27;97766.13;;;1.71;100.00
11448;BME280;43755;49.736;8.734;2023-04-20T02:54:28;97767.03;;;1.65;100.00
11448;BME280;43755;49.736;8.734;2023-04-20T02:56:30;97768.75;;;1.68;100.00
11448;BME280;43755;49.736;8.734;2023-04-20T02:58:31;97754.69;;;1.81;100.00
11448;BME280;43755;49.736;8.734;2023-04-20T03:00:34;97757.22;;;1.87;100.00
11448;BME280;43755;49.736;8.734;2023-04-20T03:02:35;97753.81;;;1.80;100.00
11448;BME280;43755;49.736;8.734;2023-04-20T03:04:37;97760.06;;;1.67;100.00
11448;BME280;43755;49.736;8.734;2023-04-20T03:06:38;97753.09;;;1.68;100.00
11448;BME280;43755;49.736;8.734;2023-04-20T03:08:41;97747.03;;;1.65;100.00
11448;BME280;43755;49.736;8.734;2023-04-20T03:10:43;97746.16;;;1.65;100.00
11448;BME280;43755;49.736;8.734;2023-04-20T03:12:44;97739.25;;;1.61;100.00
11448;BME280;43755;49.736;8.734;2023-04-20T03:14:46;97739.25;;;1.62;100.00
11448;BME280;43755;49.736;8.734;2023-04-20T03:16:48;97738.50;;;1.53;100.00
11448;BME280;43755;49.736;8.734;2023-04-20T03:18:50;97737.78;;;1.37;100.00
11448;BME280;43755;49.736;8.734;2023-04-20T03:20:51;97743.19;;;1.22;100.00
11448;BME280;43755;49.736;8.734;2023-04-20T03:22:53;97744.09;;;1.15;100.00
11448;BME280;43755;49.736;8.734;2023-04-20T03:24:54;97748.50;;;1.10;100.00
11448;BME280;43755;49.736;8.734;2023-04-20T03:26:56;97748.56;;;1.04;100.00
11448;BME280;43755;49.736;8.734;2023-04-20T03:28:57;97740.69;;;1.07;100.00
11448;BME280;43755;49.736;8.734;2023-04-20T03:30:59;97740.63;;;1.17;100.00
11448;BME280;43755;49.736;8.734;2023-04-20T03:33:02;97738.84;;;1.21;100.00
11448;BME280;43755;49.736;8.734;2023-04-20T03:35:04;97744.84;;;1.26;100.00
11448;BME280;43755;49.736;8.734;2023-04-20T03:37:05;97744.88;;;1.24;100.00
11448;BME280;43755;49.736;8.734;2023-04-20T03:39:07;97740.63;;;1.17;100.00
11448;BME280;43755;49.736;8.734;2023-04-20T03:41:08;97748.38;;;1.20;100.00
11448;BME280;43755;49.736;8.734;2023-04-20T03:43:10;97736.22;;;1.22;100.00
11448;BME280;43755;49.736;8.734;2023-04-20T03:45:11;97742.38;;;1.12;100.00
11448;BME280;43755;49.736;8.734;2023-04-20T03:47:13;97743.25;;;1.13;100.00
11448;BME280;43755;49.736;8.734;2023-04-20T03:49:20;97743.22;;;1.17;100.00
11448;BME280;43755;49.736;8.734;2023-04-20T03:51:21;97739.69;;;1.21;100.00
11448;BME280;43755;49.736;8.734;2023-04-20T03:53:23;97734.38;;;1.34;100.00
11448;BME280;43755;49.736;8.734;2023-04-20T03:55:24;97736.97;;;1.35;100.00
11448;BME280;43755;49.736;8.734;2023-04-20T03:57:26;97736.91;;;1.40;100.00
11448;BME280;43755;49.736;8.734;2023-04-20T03:59:27;97733.38;;;1.42;100.00
11448;BME280;43755;49.736;8.734;2023-04-20T04:01:28;97729.84;;;1.49;100.00
11448;BME280;43755;49.736;8.734;2023-04-20T04:03:31;97733.31;;;1.48;100.00
11448;BME280;43755;49.736;8.734;2023-04-20T04:05:34;97730.69;;;1.53;100.00
11448;BME280;43755;49.736;8.734;2023-04-20T04:07:36;97728.03;;;1.56;100.00
11448;BME280;43755;49.736;8.734;2023-04-20T04:09:37;97723.63;;;1.61;100.00
11448;BME280;43755;49.736;8.734;2023-04-20T04:11:38;97736.66;;;1.61;100.00
11448;BME280;43755;49.736;8.734;2023-04-20T04:13:40;97733.25;;;1.56;100.00
11448;BME280;43755;49.736;8.734;2023-04-20T04:15:41;97728.97;;;1.47;100.00
11448;BME280;43755;49.736;8.734;2023-04-20T04:17:43;97729.97;;;1.40;100.00
11448;BME280;43755;49.736;8.734;2023-04-20T04:19:44;97729.03;;;1.43;100.00
11448;BME280;43755;49.736;8.734;2023-04-20T04:21:47;97725.50;;;1.50;100.00
11448;BME280;43755;49.736;8.734;2023-04-20T04:23:49;97730.63;;;1.59;100.00
11448;BME280;43755;49.736;8.734;2023-04-20T04:25:50;97731.50;;;1.56;100.00
11448;BME280;43755;49.736;8.734;2023-04-20T04:27:52;97729.84;;;1.51;100.00
11448;BME280;43755;49.736;8.734;2023-04-20T04:29:53;97728.91;;;1.56;100.00
11448;BME280;43755;49.736;8.734;2023-04-20T04:31:55;97729.63;;;1.68;100.00
11448;BME280;43755;49.736;8.734;2023-04-20T04:33:57;97727.88;;;1.70;100.00
11448;BME280;43755;49.736;8.734;2023-04-20T04:35:59;97722.59;;;1.76;100.00
11448;BME280;43755;49.736;8.734;2023-04-20T04:38:01;97725.97;;;1.82;100.00
11448;BME280;43755;49.736;8.734;2023-04-20T04:40:04;97723.31;;;1.88;100.00
11448;BME280;43755;49.736;8.734;2023-04-20T04:42:07;97721.34;;;2.01;100.00
11448;BME280;43755;49.736;8.734;2023-04-20T04:44:08;97721.34;;;2.01;100.00
11448;BME280;43755;49.736;8.734;2023-04-20T04:46:10;97718.81;;;1.98;100.00
11448;BME280;43755;49.736;8.734;2023-04-20T04:48:12;97719.69;;;1.97;100.00
11448;BME280;43755;49.736;8.734;2023-04-20T04:50:14;97713.59;;;1.96;100.00
11448;BME280;43755;49.736;8.734;2023-04-20T04:52:16;97709.16;;;2.04;100.00
11448;BME280;43755;49.736;8.734;2023-04-20T04:54:19;97711.06;;;1.90;100.00
11448;BME280;43755;49.736;8.734;2023-04-20T04:56:21;97716.38;;;1.86;100.00
11448;BME280;43755;49.736;8.734;2023-04-20T04:58:23;97717.28;;;1.82;100.00
11448;BME280;43755;49.736;8.734;2023-04-20T05:00:25;97714.69;;;1.82;100.00
11448;BME280;43755;49.736;8.734;2023-04-20T05:02:26;97712.03;;;1.85;100.00
11448;BME280;43755;49.736;8.734;2023-04-20T05:04:27;97712.81;;;1.90;100.00
11448;BME280;43755;49.736;8.734;2023-04-20T05:06:29;97717.97;;;1.96;100.00
11448;BME280;43755;49.736;8.734;2023-04-20T05:08:32;97716.97;;;2.06;100.00
11448;BME280;43755;49.736;8.734;2023-04-20T05:10:35;97719.59;;;2.04;100.00
11448;BME280;43755;49.736;8.734;2023-04-20T05:12:36;97719.59;;;2.03;100.00
11448;BME280;43755;49.736;8.734;2023-04-20T05:14:38;97719.50;;;2.11;100.00
11448;BME280;43755;49.736;8.734;2023-04-20T05:16:39;97720.34;;;2.13;100.00
11448;BME280;43755;49.736;8.734;2023-04-20T05:18:40;97721.19;;;2.13;100.00
11448;BME280;43755;49.736;8.734;2023-04-20T05:20:42;97716.72;;;2.23;100.00
11448;BME280;43755;49.736;8.734;2023-04-20T05:22:43;97717.59;;;2.22;100.00
11448;BME280;43755;49.736;8.734;2023-04-20T05:24:45;97724.47;;;2.29;100.00
11448;BME280;43755;49.736;8.734;2023-04-20T05:26:47;97720.63;;;2.53;100.00
11448;BME280;43755;49.736;8.734;2023-04-20T05:28:49;97722.38;;;2.52;100.00
11448;BME280;43755;49.736;8.734;2023-04-20T05:30:50;97725.97;;;2.43;100.00
11448;BME280;43755;49.736;8.734;2023-04-20T05:32:54;97732.06;;;2.44;100.00
11448;BME280;43755;49.736;8.734;2023-04-20T05:34:55;97731.22;;;2.42;100.00
11448;BME280;43755;49.736;8.734;2023-04-20T05:36:57;97721.69;;;2.39;100.00
11448;BME280;43755;49.736;8.734;2023-04-20T05:38:59;97722.66;;;2.34;100.00
11448;BME280;43755;49.736;8.734;2023-04-20T05:41:00;97713.94;;;2.35;100.00
11448;BME280;43755;49.736;8.734;2023-04-20T05:43:03;97720.88;;;2.36;100.00
11448;BME280;43755;49.736;8.734;2023-04-20T05:45:06;97716.50;;;2.38;100.00
11448;BME280;43755;49.736;8.734;2023-04-20T05:47:07;97715.53;;;2.45;100.00
11448;BME280;43755;49.736;8.734;2023-04-20T05:49:09;97714.66;;;2.43;100.00
11448;BME280;43755;49.736;8.734;2023-04-20T05:51:10;97718.03;;;2.53;100.00
11448;BME280;43755;49.736;8.734;2023-04-20T05:53:12;97713.44;;;2.65;100.00
11448;BME280;43755;49.736;8.734;2023-04-20T05:55:13;97722.09;;;2.70;100.00
11448;BME280;43755;49.736;8.734;2023-04-20T05:57:14;97720.25;;;2.75;100.00
11448;BME280;43755;49.736;8.734;2023-04-20T05:59:17;97715.13;;;2.71;100.00
11448;BME280;43755;49.736;8.734;2023-04-20T06:01:19;97710.69;;;2.74;100.00
11448;BME280;43755;49.736;8.734;2023-04-20T06:03:20;97712.25;;;2.86;100.00
11448;BME280;43755;49.736;8.734;2023-04-20T06:05:21;97714.88;;;2.83;100.00
11448;BME280;43755;49.736;8.734;2023-04-20T06:07:23;97713.16;;;2.83;100.00
11448;BME280;43755;49.736;8.734;2023-04-20T06:09:24;97714.97;;;2.78;100.00
11448;BME280;43755;49.736;8.734;2023-04-20T06:11:26;97714.78;;;2.91;100.00
11448;BME280;43755;49.736;8.734;2023-04-20T06:13:27;97713.88;;;2.92;100.00
11448;BME280;43755;49.736;8.734;2023-04-20T06:15:30;97715.53;;;2.97;100.00
11448;BME280;43755;49.736;8.734;2023-04-20T06:17:33;97711.22;;;2.95;100.00
11448;BME280;43755;49.736;8.734;2023-04-20T06:19:35;97718.06;;;3.02;100.00
11448;BME280;43755;49.736;8.734;2023-04-20T06:21:36;97720.66;;;3.02;100.00
11448;BME280;43755;49.736;8.734;2023-04-20T06:23:38;97721.56;;;3.01;100.00
11448;BME280;43755;49.736;8.734;2023-04-20T06:25:40;97706.69;;;3.04;100.00
11448;BME280;43755;49.736;8.734;2023-04-20T06:27:41;97710.94;;;3.11;100.00
11448;BME280;43755;49.736;8.734;2023-04-20T06:29:43;97716.94;;;3.16;100.00
11448;BME280;43755;49.736;8.734;2023-04-20T06:31:45;97717.41;;;3.38;100.00
11448;BME280;43755;49.736;8.734;2023-04-20T06:33:47;97710.16;;;3.52;100.00
11448;BME280;43755;49.736;8.734;2023-04-20T06:35:48;97709.19;;;3.56;100.00
11448;BME280;43755;49.736;8.734;2023-04-20T06:37:50;97721.91;;;3.75;100.00
11448;BME280;43755;49.736;8.734;2023-04-20T06:39:52;97717.31;;;3.86;100.00
11448;BME280;43755;49.736;8.734;2023-04-20T06:41:54;97724.94;;;3.96;100.00
11448;BME280;43755;49.736;8.734;2023-04-20T06:43:55;97711.84;;;3.98;100.00
11448;BME280;43755;49.736;8.734;2023-04-20T06:45:57;97712.31;;;4.17;100.00
11448;BME280;43755;49.736;8.734;2023-04-20T06:48:00;97708.06;;;4.11;100.00
11448;BME280;43755;49.736;8.734;2023-04-20T06:50:03;97712.53;;;4.06;100.00
11448;BME280;43755;49.736;8.734;2023-04-20T06:52:08;97704.25;;;4.24;100.00
11448;BME280;43755;49.736;8.734;2023-04-20T06:54:09;97706.78;;;4.29;100.00
11448;BME280;43755;49.736;8.734;2023-04-20T06:56:11;97711.81;;;4.38;100.00
11448;BME280;43755;49.736;8.734;2023-04-20T06:58:12;97711.66;;;4.45;100.00
11448;BME280;43755;49.736;8.734;2023-04-20T07:00:14;97712.69;;;4.38;100.00
11448;BME280;43755;49.736;8.734;2023-04-20T07:02:16;97711.47;;;4.53;100.00
11448;BME280;43755;49.736;8.734;2023-04-20T07:04:18;97708.16;;;4.45;100.00
11448;BME280;43755;49.736;8.734;2023-04-20T07:06:20;97707.38;;;4.41;100.00
11448;BME280;43755;49.736;8.734;2023-04-20T07:08:21;97692.56;;;4.40;100.00
11448;BME280;43755;49.736;8.734;2023-04-20T07:10:23;97703.97;;;4.36;100.00
11448;BME280;43755;49.736;8.734;2023-04-20T07:12:24;97716.03;;;4.45;100.00
11448;BME280;43755;49.736;8.734;2023-04-20T07:14:26;97703.41;;;4.61;100.00
11448;BME280;43755;49.736;8.734;2023-04-20T07:16:27;97695.63;;;4.93;100.00
11448;BME280;43755;49.736;8.734;2023-04-20T07:18:28;97700.69;;;5.33;100.00
11448;BME280;43755;49.736;8.734;2023-04-20T07:20:31;97699.88;;;5.31;100.00
11448;BME280;43755;49.736;8.734;2023-04-20T07:22:33;97688.81;;;5.20;100.00
11448;BME280;43755;49.736;8.734;2023-04-20T07:24:35;97693.81;;;5.60;100.00
11448;BME280;43755;49.736;8.734;2023-04-20T07:26:36;97695.09;;;5.47;100.00
11448;BME280;43755;49.736;8.734;2023-04-20T07:28:38;97691.91;;;5.66;100.00
11448;BME280;43755;49.736;8.734;2023-04-20T07:30:39;97692.91;;;5.62;100.00
11448;BME280;43755;49.736;8.734;2023-04-20T07:32:41;97694.00;;;5.54;100.00
11448;BME280;43755;49.736;8.734;2023-04-20T07:34:42;97695.78;;;5.53;100.00
11448;BME280;43755;49.736;8.734;2023-04-20T07:36:45;97690.56;;;5.52;100.00
11448;BME280;43755;49.736;8.734;2023-04-20T07:38:46;97699.06;;;5.60;100.00
11448;BME280;43755;49.736;8.734;2023-04-20T07:40:48;97682.19;;;5.70;100.00
11448;BME280;43755;49.736;8.734;2023-04-20T07:42:49;97691.97;;;5.65;100.00
11448;BME280;43755;49.736;8.734;2023-04-20T07:44:50;97686.38;;;5.77;100.00
11448;BME280;43755;49.736;8.734;2023-04-20T07:46:52;97689.16;;;6.02;100.00
11448;BME280;43755;49.736;8.734;2023-04-20T07:48:54;97694.00;;;6.15;100.00
11448;BME280;43755;49.736;8.734;2023-04-20T07:50:55;97685.91;;;6.51;100.00
11448;BME280;43755;49.736;8.734;2023-04-20T07:52:58;97684.59;;;6.90;100.00
11448;BME280;43755;49.736;8.734;2023-04-20T07:54:59;97691.97;;;6.79;100.00
11448;BME280;43755;49.736;8.734;2023-04-20T07:57:01;97684.88;;;6.83;100.00
11448;BME280;43755;49.736;8.734;2023-04-20T07:59:02;97683.97;;;7.09;100.00
11448;BME280;43755;49.736;8.734;2023-04-20T08:01:04;97679.06;;;7.49;100.00
11448;BME280;43755;49.736;8.734;2023-04-20T08:03:06;97676.31;;;7.52;100.00
11448;BME280;43755;49.736;8.734;2023-04-20T08:05:07;97677.69;;;7.62;100.00
11448;BME280;43755;49.736;8.734;2023-04-20T08:07:10;97675.97;;;7.61;100.00
11448;BME280;43755;49.736;8.734;2023-04-20T08:09:12;97673.06;;;7.69;100.00
11448;BME280;43755;49.736;8.734;2023-04-20T08:11:14;97677.47;;;7.68;100.00
11448;BME280;43755;49.736;8.734;2023-04-20T08:13:15;97671.75;;;7.32;100.00
11448;BME280;43755;49.736;8.734;2023-04-20T08:15:17;97679.25;;;7.43;100.00
11448;BME280;43755;49.736;8.734;2023-04-20T08:17:18;97672.47;;;7.61;100.00
11448;BME280;43755;49.736;8.734;2023-04-20T08:19:20;97671.25;;;7.71;98.05
11448;BME280;43755;49.736;8.734;2023-04-20T08:21:21;97677.66;;;7.64;100.00
11448;BME280;43755;49.736;8.734;2023-04-20T08:23:23;97673.06;;;7.69;95.82
11448;BME280;43755;49.736;8.734;2023-04-20T08:25:28;97675.06;;;7.37;97.57
11448;BME280;43755;49.736;8.734;2023-04-20T08:27:31;97669.94;;;7.59;99.18
11448;BME280;43755;49.736;8.734;2023-04-20T08:29:33;97672.72;;;7.78;92.67
11448;BME280;43755;49.736;8.734;2023-04-20T08:31:34;97666.03;;;7.93;96.35
11448;BME280;43755;49.736;8.734;2023-04-20T08:33:36;97670.84;;;8.05;91.39
11448;BME280;43755;49.736;8.734;2023-04-20T08:35:37;97667.19;;;7.86;90.89
11448;BME280;43755;49.736;8.734;2023-04-20T08:37:39;97667.88;;;7.91;92.85
11448;BME280;43755;49.736;8.734;2023-04-20T08:39:41;97661.59;;;7.95;90.25
11448;BME280;43755;49.736;8.734;2023-04-20T08:41:43;97670.19;;;7.76;96.17
11448;BME280;43755;49.736;8.734;2023-04-20T08:43:45;97667.13;;;7.39;94.88
11448;BME280;43755;49.736;8.734;2023-04-20T08:45:49;97664.13;;;7.50;99.07
11448;BME280;43755;49.736;8.734;2023-04-20T08:47:51;97663.50;;;7.90;100.00
11448;BME280;43755;49.736;8.734;2023-04-20T08:49:53;97661.81;;;8.35;95.84
11448;BME280;43755;49.736;8.734;2023-04-20T08:51:56;97654.06;;;8.74;92.96
11448;BME280;43755;49.736;8.734;2023-04-20T08:54:02;97660.63;;;8.86;82.72
11448;BME280;43755;49.736;8.734;2023-04-20T08:56:05;97661.38;;;8.89;81.52
11448;BME280;43755;49.736;8.734;2023-04-20T08:58:08;97666.72;;;9.08;84.95
11448;BME280;43755;49.736;8.734;2023-04-20T09:00:10;97658.28;;;9.20;81.24
11448;BME280;43755;49.736;8.734;2023-04-20T09:02:12;97654.59;;;9.24;79.58
11448;BME280;43755;49.736;8.734;2023-04-20T09:04:15;97661.19;;;9.34;79.80
11448;BME280;43755;49.736;8.734;2023-04-20T09:06:17;97651.63;;;9.32;79.83
11448;BME280;43755;49.736;8.734;2023-04-20T09:08:18;97657.06;;;8.87;81.76
11448;BME280;43755;49.736;8.734;2023-04-20T09:10:21;97660.50;;;8.67;86.19
11448;BME280;43755;49.736;8.734;2023-04-20T09:12:24;97661.44;;;8.44;87.23
11448;BME280;43755;49.736;8.734;2023-04-20T09:14:27;97650.72;;;8.71;89.08
11448;BME280;43755;49.736;8.734;2023-04-20T09:16:29;97646.91;;;8.98;85.63
11448;BME280;43755;49.736;8.734;2023-04-20T09:18:30;97651.69;;;9.10;86.82
11448;BME280;43755;49.736;8.734;2023-04-20T09:20:33;97653.97;;;8.77;84.44
11448;BME280;43755;49.736;8.734;2023-04-20T09:22:35;97646.47;;;8.67;89.29
11448;BME280;43755;49.736;8.734;2023-04-20T09:24:38;97662.63;;;8.59;81.59
11448;BME280;43755;49.736;8.734;2023-04-20T09:26:40;97644.06;;;8.60;85.75
11448;BME280;43755;49.736;8.734;2023-04-20T09:28:41;97650.75;;;8.69;87.51
11448;BME280;43755;49.736;8.734;2023-04-20T09:30:46;97636.81;;;9.08;84.87
11448;BME280;43755;49.736;8.734;2023-04-20T09:32:47;97642.31;;;9.43;77.58
11448;BME280;43755;49.736;8.734;2023-04-20T09:34:49;97632.72;;;9.61;75.62
11448;BME280;43755;49.736;8.734;2023-04-20T09:36:51;97632.63;;;9.83;73.97
11448;BME280;43755;49.736;8.734;2023-04-20T09:39:02;97642.13;;;9.67;76.46
11448;BME280;43755;49.736;8.734;2023-04-20T09:41:05;97630.59;;;9.30;73.78
11448;BME280;43755;49.736;8.734;2023-04-20T09:43:08;97634.19;;;9.28;83.64
11448;BME280;43755;49.736;8.734;2023-04-20T09:45:12;97634.00;;;9.53;81.80
11448;BME280;43755;49.736;8.734;2023-04-20T09:47:17;97629.53;;;9.34;72.95
11448;BME280;43755;49.736;8.734;2023-04-20T09:49:18;97631.63;;;9.26;74.39
11448;BME280;43755;49.736;8.734;2023-04-20T09:51:20;97633.88;;;9.15;76.08
11448;BME280;43755;49.736;8.734;2023-04-20T09:53:23;97623.03;;;9.21;76.88
11448;BME280;43755;49.736;8.734;2023-04-20T09:55:26;97627.38;;;9.63;73.25
11448;BME280;43755;49.736;8.734;2023-04-20T09:57:27;97615.19;;;9.79;69.93
11448;BME280;43755;49.736;8.734;2023-04-20T09:59:32;97621.88;;;9.67;72.42
11448;BME280;43755;49.736;8.734;2023-04-20T10:01:34;97603.34;;;9.88;76.54
11448;BME280;43755;49.736;8.734;2023-04-20T10:03:40;97609.06;;;10.35;76.20
11448;BME280;43755;49.736;8.734;2023-04-20T10:05:41;97621.19;;;10.39;66.50
11448;BME280;43755;49.736;8.734;2023-04-20T10:07:43;97619.72;;;10.33;68.14
11448;BME280;43755;49.736;8.734;2023-04-20T10:09:45;97613.44;;;10.36;72.64
11448;BME280;43755;49.736;8.734;2023-04-20T10:11:46;97618.84;;;10.68;69.44
11448;BME280;43755;49.736;8.734;2023-04-20T10:13:48;97619.34;;;10.77;67.53
11448;BME280;43755;49.736;8.734;2023-04-20T10:15:49;97616.41;;;10.83;67.36
11448;BME280;43755;49.736;8.734;2023-04-20T10:17:52;97611.19;;;11.16;66.97
11448;BME280;43755;49.736;8.734;2023-04-20T10:19:54;97608.97;;;11.41;63.93
11448;BME280;43755;49.736;8.734;2023-04-20T10:21:56;97607.91;;;10.93;58.04
11448;BME280;43755;49.736;8.734;2023-04-20T10:23:58;97608.13;;;10.72;61.58
11448;BME280;43755;49.736;8.734;2023-04-20T10:26:02;97605.19;;;10.95;63.56
11448;BME280;43755;49.736;8.734;2023-04-20T10:28:04;97596.00;;;10.49;60.32
11448;BME280;43755;49.736;8.734;2023-04-20T10:30:09;97593.63;;;10.25;58.95
11448;BME280;43755;49.736;8.734;2023-04-20T10:32:20;97599.03;;;10.60;61.78
11448;BME280;43755;49.736;8.734;2023-04-20T10:34:31;97582.47;;;11.58;62.25
11448;BME280;43755;49.736;8.734;2023-04-20T10:36:36;97571.63;;;11.96;60.17
11448;BME280;43755;49.736;8.734;2023-04-20T10:38:38;97576.22;;;11.92;57.50
11448;BME280;43755;49.736;8.734;2023-04-20T10:40:39;97587.63;;;11.44;55.13
11448;BME280;43755;49.736;8.734;2023-04-20T10:42:41;97580.22;;;11.50;57.68
11448;BME280;43755;49.736;8.734;2023-04-20T10:44:46;97587.19;;;11.69;56.54
11448;BME280;43755;49.736;8.734;2023-04-20T10:46:48;97576.19;;;11.26;57.42
11448;BME280;43755;49.736;8.734;2023-04-20T10:48:55;97569.69;;;11.16;58.12